createdAt,value
2018-01-05T05:00:29.934Z,7.45
2018-01-05T05:00:55.447Z,7.45
2018-01-05T05:01:20.921Z,7.42
2018-01-05T05:01:46.429Z,7.42
2018-01-05T05:02:11.922Z,7.39
2018-01-05T05:02:37.437Z,7.36
2018-01-05T05:03:02.890Z,7.42
2018-01-05T05:03:28.349Z,7.45
2018-01-05T05:03:53.842Z,7.42
2018-01-05T05:04:19.308Z,7.4
2018-01-05T05:04:44.797Z,7.47
2018-01-05T05:05:10.282Z,7.5
2018-01-05T05:05:35.787Z,7.5
2018-01-05T05:06:01.289Z,7.45
2018-01-05T05:06:26.801Z,7.4
2018-01-05T05:06:52.274Z,7.48
2018-01-05T05:07:17.804Z,7.47
2018-01-05T05:07:43.318Z,7.45
2018-01-05T05:08:08.782Z,7.47
2018-01-05T05:08:34.243Z,7.42
2018-01-05T05:08:59.740Z,7.53
2018-01-05T05:09:25.247Z,7.48
2018-01-05T05:09:50.766Z,7.48
2018-01-05T05:10:16.301Z,7.43
2018-01-05T05:10:41.820Z,7.48
2018-01-05T05:11:07.317Z,7.48
2018-01-05T05:11:32.793Z,7.47
2018-01-05T05:11:58.270Z,7.47
2018-01-05T05:12:23.797Z,7.45
2018-01-05T05:12:49.296Z,7.5
2018-01-05T05:13:14.827Z,7.48
2018-01-05T05:13:40.355Z,7.47
2018-01-05T05:14:05.877Z,7.47
2018-01-05T05:14:31.355Z,7.47
2018-01-05T05:14:56.880Z,7.47
2018-01-05T05:15:22.342Z,7.42
2018-01-05T05:16:20.852Z,7.45
2018-01-05T05:16:46.346Z,7.48
2018-01-05T05:17:11.813Z,7.47
2018-01-05T05:17:37.305Z,7.51
2018-01-05T05:18:02.760Z,7.51
2018-01-05T05:18:28.272Z,7.51
2018-01-05T05:18:53.800Z,7.5
2018-01-05T05:19:19.275Z,7.48
2018-01-05T05:19:44.822Z,7.47
2018-01-05T05:20:10.368Z,7.42
2018-01-05T05:20:35.891Z,7.47
2018-01-05T05:21:01.346Z,7.47
2018-01-05T05:21:26.833Z,7.45
2018-01-05T05:21:52.309Z,7.43
2018-01-05T05:22:17.793Z,7.43
2018-01-05T05:23:21.414Z,7.45
2018-01-05T05:23:46.934Z,7.45
2018-01-05T05:24:12.453Z,7.42
2018-01-05T05:24:37.925Z,7.4
2018-01-05T05:25:03.401Z,7.45
2018-01-05T05:25:28.940Z,7.39
2018-01-05T05:25:54.662Z,7.35
2018-01-05T05:26:20.376Z,7.43
2018-01-05T05:26:45.954Z,7.38
2018-01-05T05:27:11.408Z,7.4
2018-01-05T05:27:36.815Z,7.39
2018-01-05T05:28:02.312Z,7.4
2018-01-05T05:28:27.813Z,7.32
2018-01-05T05:28:53.328Z,7.38
2018-01-05T05:29:18.946Z,7.35
2018-01-05T05:29:44.826Z,7.33
2018-01-05T05:30:10.556Z,7.35
2018-01-05T05:30:36.235Z,7.31
2018-01-05T05:31:01.822Z,7.29
2018-01-05T05:31:27.260Z,7.31
2018-01-05T05:31:53.400Z,7.32
2018-01-05T05:32:18.911Z,7.36
2018-01-05T05:32:44.413Z,7.36
2018-01-05T05:33:09.880Z,7.29
2018-01-05T05:33:35.349Z,7.35
2018-01-05T05:34:00.836Z,7.36
2018-01-05T05:34:26.311Z,7.36
2018-01-05T05:34:51.780Z,7.38
2018-01-05T05:35:17.305Z,7.35
2018-01-05T05:35:42.805Z,7.33
2018-01-05T05:36:08.408Z,7.29
2018-01-05T05:36:33.743Z,7.33
2018-01-05T05:36:59.245Z,7.33
2018-01-05T05:37:24.724Z,7.29
2018-01-05T05:37:50.222Z,7.24
2018-01-05T05:38:15.726Z,7.32
2018-01-05T05:38:41.232Z,7.33
2018-01-05T05:39:06.706Z,7.35
2018-01-05T05:39:32.213Z,7.35
2018-01-05T05:39:57.696Z,7.21
2018-01-05T05:40:23.177Z,7.2
2018-01-05T05:40:48.683Z,7.28
2018-01-05T05:41:14.227Z,7.21
2018-01-05T05:41:39.668Z,7.17
2018-01-05T05:42:05.163Z,7.23
2018-01-05T05:42:30.639Z,7.2
2018-01-05T05:42:56.139Z,7.15
2018-01-05T05:43:21.621Z,7.31
2018-01-05T05:43:47.117Z,7.23
2018-01-05T05:44:12.605Z,7.21
2018-01-05T05:44:38.123Z,7.2
2018-01-05T05:45:03.608Z,7.24
2018-01-05T05:45:29.116Z,7.2
2018-01-05T05:45:54.758Z,7.18
2018-01-05T05:46:20.377Z,7.21
2018-01-05T05:46:45.864Z,7.18
2018-01-05T05:47:11.325Z,7.21
2018-01-05T05:47:36.822Z,7.2
2018-01-05T05:48:02.297Z,7.28
2018-01-05T05:48:27.777Z,7.23
2018-01-05T05:48:53.306Z,7.21
2018-01-05T05:49:18.853Z,7.21
2018-01-05T05:49:44.396Z,7.23
2018-01-05T05:50:09.901Z,7.2
2018-01-05T05:50:35.422Z,7.2
2018-01-05T05:51:00.851Z,7.17
2018-01-05T05:51:26.340Z,7.14
2018-01-05T05:51:51.783Z,7.2
2018-01-05T05:52:17.277Z,7.15
2018-01-05T05:52:42.737Z,7.15
2018-01-05T05:53:08.227Z,7.17
2018-01-05T05:53:33.672Z,7.18
2018-01-05T05:53:59.198Z,7.18
2018-01-05T05:54:24.722Z,7.14
2018-01-05T05:54:50.182Z,7.17
2018-01-05T05:55:15.642Z,7.17
2018-01-05T05:55:41.123Z,7.2
2018-01-05T05:56:06.665Z,7.18
2018-01-05T05:56:32.086Z,7.14
2018-01-05T05:56:57.529Z,7.2
2018-01-05T05:57:22.989Z,7.2
2018-01-05T05:57:48.488Z,7.18
2018-01-05T05:58:13.936Z,7.15
2018-01-05T05:58:39.390Z,7.18
2018-01-05T05:59:04.877Z,7.2
2018-01-05T05:59:30.332Z,7.07
2018-01-05T05:59:55.813Z,7.06
2018-01-05T06:00:21.350Z,7.07
2018-01-05T06:00:46.796Z,7.18
2018-01-05T06:01:12.276Z,7.06
2018-01-05T06:01:37.863Z,7.06
2018-01-05T06:02:03.317Z,7.14
2018-01-05T06:02:28.855Z,7.05
2018-01-05T06:02:54.373Z,7.11
2018-01-05T06:03:19.914Z,7.06
2018-01-05T06:03:45.362Z,7.06
2018-01-05T06:04:10.825Z,7.05
2018-01-05T06:04:36.281Z,7.03
2018-01-05T06:05:01.721Z,7.05
2018-01-05T06:05:27.183Z,7.11
2018-01-05T06:05:52.644Z,7.1
2018-01-05T06:06:18.131Z,7.07
2018-01-05T06:06:43.734Z,7.07
2018-01-05T06:07:09.119Z,7.07
2018-01-05T06:07:34.565Z,7.06
2018-01-05T06:08:00.072Z,7.13
2018-01-05T06:08:25.522Z,7.02
2018-01-05T06:08:50.978Z,7.11
2018-01-05T06:09:16.445Z,7.18
2018-01-05T06:09:41.922Z,7.11
2018-01-05T06:10:07.399Z,7.1
2018-01-05T06:10:32.865Z,7.17
2018-01-05T06:10:58.338Z,7.05
2018-01-05T06:11:23.798Z,7.05
2018-01-05T06:11:49.257Z,7.03
2018-01-05T06:12:14.749Z,7.13
2018-01-05T06:12:40.181Z,7.2
2018-01-05T06:13:05.670Z,7.1
2018-01-05T06:13:31.181Z,7.2
2018-01-05T06:13:56.667Z,7.03
2018-01-05T06:14:22.176Z,7.2
2018-01-05T06:14:47.684Z,7.05
2018-01-05T06:15:13.098Z,7.06
2018-01-05T06:15:38.615Z,7.15
2018-01-05T06:16:04.073Z,7.23
2018-01-05T06:16:29.596Z,7.2
2018-01-05T06:16:55.125Z,7.2
2018-01-05T06:17:20.600Z,7.14
2018-01-05T06:17:46.071Z,7.15
2018-01-05T06:18:11.541Z,7.13
2018-01-05T06:18:37.027Z,7.11
2018-01-05T06:19:02.462Z,7.1
2018-01-05T06:19:27.948Z,7.2
2018-01-05T06:20:31.540Z,7.06
2018-01-05T06:20:57.019Z,7.03
2018-01-05T06:21:22.514Z,7.2
2018-01-05T06:21:48.005Z,7.2
2018-01-05T06:22:13.506Z,7.11
2018-01-05T06:22:38.990Z,7.1
2018-01-05T06:23:04.460Z,7.2
2018-01-05T06:23:29.969Z,7.1
2018-01-05T06:23:55.443Z,7.18
2018-01-05T06:24:20.928Z,7.11
2018-01-05T06:24:46.443Z,7.23
2018-01-05T06:25:11.935Z,7.17
2018-01-05T06:25:37.420Z,7.14
2018-01-05T06:26:02.889Z,7.15
2018-01-05T06:26:28.388Z,7.23
2018-01-05T06:26:53.890Z,7.23
2018-01-05T06:27:19.378Z,7.13
2018-01-05T06:27:44.900Z,7.14
2018-01-05T06:28:10.387Z,7.2
2018-01-05T06:28:35.894Z,7.11
2018-01-05T06:29:24.278Z,7.18
2018-01-05T06:29:49.723Z,7.24
2018-01-05T06:30:15.196Z,7.17
2018-01-05T06:30:40.726Z,7.17
2018-01-05T06:31:06.207Z,7.18
2018-01-05T06:31:31.700Z,7.17
2018-01-05T06:31:57.146Z,7.18
2018-01-05T06:32:22.596Z,7.2
2018-01-05T06:32:48.065Z,7.28
2018-01-05T06:33:13.645Z,7.18
2018-01-05T06:33:39.053Z,7.11
2018-01-05T06:34:04.572Z,7.2
2018-01-05T06:34:30.076Z,7.31
2018-01-05T06:35:33.678Z,7.24
2018-01-05T06:35:59.144Z,7.13
2018-01-05T06:36:24.658Z,7.21
2018-01-05T06:36:50.135Z,7.18
2018-01-05T06:37:15.625Z,7.17
2018-01-05T06:37:41.080Z,7.23
2018-01-05T06:38:06.600Z,7.24
2018-01-05T06:38:32.114Z,7.25
2018-01-05T06:38:57.608Z,7.23
2018-01-05T06:39:23.106Z,7.17
2018-01-05T06:39:48.598Z,7.28
2018-01-05T06:40:14.075Z,7.23
2018-01-05T06:40:39.563Z,7.24
2018-01-05T06:41:05.072Z,7.24
2018-01-05T06:41:30.547Z,7.21
2018-01-05T06:41:56.069Z,7.25
2018-01-05T06:42:21.562Z,7.25
2018-01-05T06:42:47.050Z,7.25
2018-01-05T06:43:12.507Z,7.25
2018-01-05T06:43:37.991Z,7.29
2018-01-05T06:44:03.465Z,7.24
2018-01-05T06:44:29.003Z,7.23
2018-01-05T06:44:54.509Z,7.38
2018-01-05T06:45:19.984Z,7.28
2018-01-05T06:45:45.536Z,7.32
2018-01-05T06:46:11.017Z,7.28
2018-01-05T06:46:36.489Z,7.33
2018-01-05T06:47:01.999Z,7.35
2018-01-05T06:47:27.498Z,7.31
2018-01-05T06:47:52.954Z,7.29
2018-01-05T06:48:18.469Z,7.38
2018-01-05T06:48:43.938Z,7.35
2018-01-05T06:49:09.465Z,7.31
2018-01-05T06:49:34.970Z,7.39
2018-01-05T06:50:00.452Z,7.4
2018-01-05T06:50:25.980Z,7.4
2018-01-05T06:50:51.436Z,7.4
2018-01-05T06:51:16.986Z,7.35
2018-01-05T06:51:42.464Z,7.43
2018-01-05T06:52:07.935Z,7.45
2018-01-05T06:52:33.448Z,7.39
2018-01-05T06:52:58.927Z,7.47
2018-01-05T06:53:24.435Z,7.47
2018-01-05T06:53:49.994Z,7.48
2018-01-05T06:54:15.433Z,7.48
2018-01-05T06:54:40.915Z,7.45
2018-01-05T06:55:06.367Z,7.5
2018-01-05T06:55:31.877Z,7.45
2018-01-05T06:55:57.383Z,7.45
2018-01-05T06:56:22.877Z,7.51
2018-01-05T06:56:48.345Z,7.5
2018-01-05T06:57:13.827Z,7.56
2018-01-05T06:57:39.306Z,7.53
2018-01-05T06:58:04.793Z,7.6
2018-01-05T06:58:30.276Z,7.48
2018-01-05T06:58:55.797Z,7.53
2018-01-05T06:59:49.232Z,7.45
2018-01-05T07:00:14.721Z,7.57
2018-01-05T07:00:40.192Z,7.48
2018-01-05T07:01:05.677Z,7.43
2018-01-05T07:01:31.195Z,7.48
2018-01-05T07:01:56.685Z,7.56
2018-01-05T07:02:22.158Z,7.53
2018-01-05T07:02:47.678Z,7.47
2018-01-05T07:03:13.155Z,7.61
2018-01-05T07:03:38.685Z,7.53
2018-01-05T07:04:04.207Z,7.67
2018-01-05T07:04:29.701Z,7.48
2018-01-05T07:04:55.184Z,7.45
2018-01-05T07:05:20.664Z,7.51
2018-01-05T07:06:24.263Z,7.48
2018-01-05T07:06:49.770Z,7.51
2018-01-05T07:07:15.275Z,7.43
2018-01-05T07:07:40.802Z,7.54
2018-01-05T07:08:06.303Z,7.54
2018-01-05T07:08:31.805Z,7.45
2018-01-05T07:08:57.296Z,7.54
2018-01-05T07:09:22.762Z,7.51
2018-01-05T07:09:48.241Z,7.57
2018-01-05T07:10:13.803Z,7.56
2018-01-05T07:10:39.239Z,7.57
2018-01-05T07:11:04.707Z,7.51
2018-01-05T07:11:30.164Z,7.5
2018-01-05T07:11:55.663Z,7.56
2018-01-05T07:12:21.151Z,7.53
2018-01-05T07:12:46.624Z,7.56
2018-01-05T07:13:12.149Z,7.53
2018-01-05T07:14:10.726Z,7.5
2018-01-05T07:14:36.244Z,7.5
2018-01-05T07:15:01.758Z,7.42
2018-01-05T07:15:27.263Z,7.5
2018-01-05T07:15:52.728Z,7.48
2018-01-05T07:16:18.231Z,7.47
2018-01-05T07:16:43.710Z,7.5
2018-01-05T07:17:09.185Z,7.51
2018-01-05T07:17:34.664Z,7.48
2018-01-05T07:18:00.142Z,7.38
2018-01-05T07:18:25.603Z,7.47
2018-01-05T07:18:51.079Z,7.4
2018-01-05T07:19:16.543Z,7.47
2018-01-05T07:19:42.029Z,7.53
2018-01-05T07:20:07.521Z,7.42
2018-01-05T07:20:33.039Z,7.43
2018-01-05T07:20:58.566Z,7.4
2018-01-05T07:21:24.087Z,7.42
2018-01-05T07:21:49.619Z,7.38
2018-01-05T07:22:15.081Z,7.39
2018-01-05T07:22:40.617Z,7.42
2018-01-05T07:23:06.095Z,7.35
2018-01-05T07:23:31.592Z,7.35
2018-01-05T07:23:57.097Z,7.42
2018-01-05T07:24:22.567Z,7.43
2018-01-05T07:24:48.063Z,7.38
2018-01-05T07:25:13.541Z,7.4
2018-01-05T07:25:39.037Z,7.35
2018-01-05T07:26:04.484Z,7.36
2018-01-05T07:26:30.020Z,7.4
2018-01-05T07:26:55.547Z,7.39
2018-01-05T07:27:21.021Z,7.35
2018-01-05T07:27:46.537Z,7.35
2018-01-05T07:28:12.043Z,7.32
2018-01-05T07:28:37.561Z,7.38
2018-01-05T07:29:03.047Z,7.32
2018-01-05T07:29:28.571Z,7.36
2018-01-05T07:29:54.075Z,7.33
2018-01-05T07:30:19.560Z,7.33
2018-01-05T07:30:45.035Z,7.39
2018-01-05T07:31:10.539Z,7.35
2018-01-05T07:31:36.045Z,7.39
2018-01-05T07:32:01.494Z,7.31
2018-01-05T07:32:26.960Z,7.36
2018-01-05T07:32:52.418Z,7.36
2018-01-05T07:33:17.926Z,7.38
2018-01-05T07:33:43.401Z,7.35
2018-01-05T07:34:08.898Z,7.38
2018-01-05T07:34:34.378Z,7.31
2018-01-05T07:34:59.848Z,7.29
2018-01-05T07:35:25.333Z,7.35
2018-01-05T07:35:50.834Z,7.39
2018-01-05T07:36:16.316Z,7.4
2018-01-05T07:36:41.870Z,7.35
2018-01-05T07:37:07.328Z,7.28
2018-01-05T07:37:32.801Z,7.36
2018-01-05T07:37:58.278Z,7.31
2018-01-05T07:38:23.765Z,7.35
2018-01-05T07:38:49.261Z,7.35
2018-01-05T07:39:14.748Z,7.31
2018-01-05T07:39:40.271Z,7.32
2018-01-05T07:40:33.697Z,7.28
2018-01-05T07:40:59.194Z,7.31
2018-01-05T07:41:24.695Z,7.28
2018-01-05T07:41:50.204Z,7.31
2018-01-05T07:42:15.705Z,7.25
2018-01-05T07:42:41.237Z,7.25
2018-01-05T07:43:06.733Z,7.39
2018-01-05T07:43:32.254Z,7.33
2018-01-05T07:43:57.753Z,7.25
2018-01-05T07:44:23.249Z,7.28
2018-01-05T07:44:48.759Z,7.35
2018-01-05T07:45:14.238Z,7.28
2018-01-05T07:45:39.711Z,7.33
2018-01-05T07:46:05.231Z,7.24
2018-01-05T07:46:30.725Z,7.25
2018-01-05T07:46:56.265Z,7.24
2018-01-05T07:47:21.771Z,7.35
2018-01-05T07:47:47.265Z,7.32
2018-01-05T07:48:12.737Z,7.33
2018-01-05T07:48:38.237Z,7.29
2018-01-05T07:49:03.790Z,7.28
2018-01-05T07:49:29.273Z,7.23
2018-01-05T07:49:54.745Z,7.31
2018-01-05T07:50:20.270Z,7.25
2018-01-05T07:50:45.790Z,7.24
2018-01-05T07:51:11.309Z,7.2
2018-01-05T07:51:36.812Z,7.28
2018-01-05T07:52:02.306Z,7.33
2018-01-05T07:52:27.836Z,7.28
2018-01-05T07:53:26.352Z,7.32
2018-01-05T07:53:51.842Z,7.29
2018-01-05T07:54:17.331Z,7.29
2018-01-05T07:54:42.800Z,7.23
2018-01-05T07:55:08.266Z,7.29
2018-01-05T07:55:33.763Z,7.25
2018-01-05T07:55:59.271Z,7.28
2018-01-05T07:56:24.762Z,7.2
2018-01-05T07:56:50.317Z,7.18
2018-01-05T07:57:15.744Z,7.2
2018-01-05T07:57:41.256Z,7.23
2018-01-05T07:58:06.787Z,7.25
2018-01-05T07:58:32.320Z,7.25
2018-01-05T07:58:57.792Z,7.2
2018-01-05T07:59:23.269Z,7.24
2018-01-05T07:59:48.736Z,7.21
2018-01-05T08:00:42.181Z,7.25
2018-01-05T08:01:07.654Z,7.2
2018-01-05T08:01:33.173Z,7.29
2018-01-05T08:01:58.630Z,7.23
2018-01-05T08:02:24.137Z,7.23
2018-01-05T08:02:49.668Z,7.23
2018-01-05T08:03:15.165Z,7.21
2018-01-05T08:03:40.607Z,7.21
2018-01-05T08:04:06.096Z,7.21
2018-01-05T08:04:31.560Z,7.23
2018-01-05T08:04:57.060Z,7.32
2018-01-05T08:05:22.531Z,7.18
2018-01-05T08:05:48.046Z,7.2
2018-01-05T08:06:13.559Z,7.23
2018-01-05T08:06:39.014Z,7.23
2018-01-05T08:07:04.512Z,7.21
2018-01-05T08:07:30.009Z,7.25
2018-01-05T08:07:55.484Z,7.18
2018-01-05T08:08:20.952Z,7.2
2018-01-05T08:08:46.472Z,7.25
2018-01-05T08:09:11.989Z,7.21
2018-01-05T08:09:37.470Z,7.2
2018-01-05T08:10:02.972Z,7.18
2018-01-05T08:10:28.482Z,7.23
2018-01-05T08:10:53.982Z,7.23
2018-01-05T08:11:19.460Z,7.24
2018-01-05T08:11:44.932Z,7.18
2018-01-05T08:12:10.432Z,7.25
2018-01-05T08:12:35.928Z,7.21
2018-01-05T08:13:01.443Z,7.25
2018-01-05T08:13:26.909Z,7.28
2018-01-05T08:13:52.412Z,7.23
2018-01-05T08:15:01.716Z,7.17
2018-01-05T08:15:27.226Z,7.21
2018-01-05T08:15:52.674Z,7.23
2018-01-05T08:16:18.130Z,7.25
2018-01-05T08:16:43.597Z,7.25
2018-01-05T08:17:09.082Z,7.2
2018-01-05T08:17:34.541Z,7.21
2018-01-05T08:18:00.019Z,7.18
2018-01-05T08:18:25.453Z,7.21
2018-01-05T08:18:50.894Z,7.18
2018-01-05T08:19:16.346Z,7.13
2018-01-05T08:19:41.815Z,7.13
2018-01-05T08:20:07.288Z,7.21
2018-01-05T08:20:32.748Z,7.13
2018-01-05T08:20:58.219Z,7.15
2018-01-05T08:21:23.702Z,7.2
2018-01-05T08:21:49.191Z,7.25
2018-01-05T08:22:14.654Z,7.2
2018-01-05T08:22:40.110Z,7.2
2018-01-05T08:23:43.681Z,7.33
2018-01-05T08:24:09.157Z,7.29
2018-01-05T08:24:34.651Z,7.21
2018-01-05T08:25:00.134Z,7.28
2018-01-05T08:25:25.625Z,7.18
2018-01-05T08:25:51.133Z,7.21
2018-01-05T08:26:16.590Z,7.24
2018-01-05T08:26:42.085Z,7.18
2018-01-05T08:27:07.591Z,7.23
2018-01-05T08:27:33.074Z,7.23
2018-01-05T08:27:58.574Z,7.15
2018-01-05T08:28:24.064Z,7.28
2018-01-05T08:28:49.581Z,7.2
2018-01-05T08:29:15.037Z,7.17
2018-01-05T08:29:40.490Z,7.24
2018-01-05T08:30:05.964Z,7.2
2018-01-05T08:30:31.441Z,7.33
2018-01-05T08:30:56.954Z,7.24
2018-01-05T08:31:22.488Z,7.24
2018-01-05T08:31:48.000Z,7.14
2018-01-05T08:32:13.503Z,7.23
2018-01-05T08:32:38.986Z,7.24
2018-01-05T08:33:04.485Z,7.21
2018-01-05T08:33:29.946Z,7.25
2018-01-05T08:33:55.418Z,7.28
2018-01-05T08:34:20.870Z,7.24
2018-01-05T08:34:46.354Z,7.2
2018-01-05T08:35:11.908Z,7.25
2018-01-05T08:35:37.332Z,7.28
2018-01-05T08:36:02.820Z,7.25
2018-01-05T08:36:28.304Z,7.24
2018-01-05T08:36:53.819Z,7.24
2018-01-05T08:37:19.334Z,7.31
2018-01-05T08:37:44.792Z,7.21
2018-01-05T08:38:10.362Z,7.23
2018-01-05T08:38:35.827Z,7.23
2018-01-05T08:39:39.404Z,7.23
2018-01-05T08:40:04.885Z,7.2
2018-01-05T08:40:30.383Z,7.23
2018-01-05T08:40:55.897Z,7.21
2018-01-05T08:41:21.388Z,7.24
2018-01-05T08:41:46.937Z,7.2
2018-01-05T08:42:12.418Z,7.21
2018-01-05T08:42:37.933Z,7.2
2018-01-05T08:43:03.412Z,7.2
2018-01-05T08:43:28.903Z,7.11
2018-01-05T08:43:54.410Z,7.31
2018-01-05T08:44:19.930Z,7.2
2018-01-05T08:44:45.456Z,7.21
2018-01-05T08:45:11.065Z,7.24
2018-01-05T08:45:36.543Z,7.23
2018-01-05T08:46:02.033Z,7.17
2018-01-05T08:46:27.512Z,7.15
2018-01-05T08:46:53.045Z,7.21
2018-01-05T08:47:18.521Z,7.17
2018-01-05T08:47:43.994Z,7.2
2018-01-05T08:48:09.488Z,7.2
2018-01-05T08:48:34.952Z,7.18
2018-01-05T08:49:00.431Z,7.15
2018-01-05T08:49:25.952Z,7.11
2018-01-05T08:49:51.476Z,7.23
2018-01-05T08:50:16.960Z,7.15
2018-01-05T08:50:42.502Z,7.02
2018-01-05T08:51:07.995Z,7.11
2018-01-05T08:51:33.452Z,7.1
2018-01-05T08:51:58.919Z,7.1
2018-01-05T08:52:24.410Z,7.21
2018-01-05T08:52:49.867Z,7.11
2018-01-05T08:53:15.359Z,7.11
2018-01-05T08:53:40.882Z,7.06
2018-01-05T08:54:29.202Z,7.06
2018-01-05T08:54:54.713Z,7.07
2018-01-05T08:55:20.226Z,7.14
2018-01-05T08:55:45.679Z,7.03
2018-01-05T08:56:11.186Z,7.11
2018-01-05T08:56:36.630Z,7.03
2018-01-05T08:57:02.128Z,7.15
2018-01-05T08:57:27.662Z,7.14
2018-01-05T08:57:53.136Z,7.14
2018-01-05T08:58:18.647Z,7.06
2018-01-05T08:58:44.196Z,7.05
2018-01-05T08:59:09.689Z,7.15
2018-01-05T08:59:35.168Z,7.14
2018-01-05T09:00:00.695Z,7.07
2018-01-05T09:00:26.185Z,7.06
2018-01-05T09:00:51.675Z,7.05
2018-01-05T09:01:39.977Z,7.06
2018-01-05T09:02:05.468Z,7.07
2018-01-05T09:02:30.949Z,7.05
2018-01-05T09:02:56.409Z,7.07
2018-01-05T09:03:21.918Z,7.06
2018-01-05T09:04:25.564Z,7.11
2018-01-05T09:04:51.052Z,7.06
2018-01-05T09:05:16.530Z,7.05
2018-01-05T09:06:20.143Z,7.03
2018-01-05T09:06:45.646Z,7.03
2018-01-05T09:07:11.181Z,7.18
2018-01-05T09:07:36.695Z,7.1
2018-01-05T09:08:44.889Z,7.18
2018-01-05T09:09:10.409Z,7.14
2018-01-05T09:09:35.865Z,7.14
2018-01-05T09:10:29.299Z,7.13
2018-01-05T09:10:54.806Z,7.15
2018-01-05T09:11:20.298Z,7.17
2018-01-05T09:11:45.853Z,7.23
2018-01-05T09:12:11.403Z,7.15
2018-01-05T09:12:36.886Z,7.31
2018-01-05T09:13:02.382Z,7.25
2018-01-05T09:13:27.888Z,7.17
2018-01-05T09:13:53.387Z,7.21
2018-01-05T09:14:18.857Z,7.21
2018-01-05T09:14:44.326Z,7.18
2018-01-05T09:15:09.843Z,7.31
2018-01-05T09:15:35.354Z,7.25
2018-01-05T09:16:00.860Z,7.24
2018-01-05T09:16:26.357Z,7.24
2018-01-05T09:16:51.850Z,7.23
2018-01-05T09:17:17.338Z,7.28
2018-01-05T09:17:42.846Z,7.28
2018-01-05T09:18:08.313Z,7.29
2018-01-05T09:18:33.793Z,7.36
2018-01-05T09:18:59.272Z,7.32
2018-01-05T09:19:24.775Z,7.35
2018-01-05T09:19:50.306Z,7.33
2018-01-05T09:20:15.786Z,7.33
2018-01-05T09:20:41.253Z,7.4
2018-01-05T09:21:06.789Z,7.4
2018-01-05T09:21:32.287Z,7.38
2018-01-05T09:21:57.772Z,7.4
2018-01-05T09:22:23.288Z,7.43
2018-01-05T09:23:11.618Z,7.45
2018-01-05T09:23:37.145Z,7.42
2018-01-05T09:24:02.588Z,7.45
2018-01-05T09:24:28.046Z,7.48
2018-01-05T09:24:53.482Z,7.4
2018-01-05T09:25:18.932Z,7.47
2018-01-05T09:25:44.441Z,7.38
2018-01-05T09:26:48.042Z,7.51
2018-01-05T09:27:13.509Z,7.51
2018-01-05T09:27:39.002Z,7.42
2018-01-05T09:28:31.961Z,7.51
2018-01-05T09:28:57.466Z,7.5
2018-01-05T09:29:22.914Z,7.5
2018-01-05T09:29:48.419Z,7.47
2018-01-05T09:30:13.925Z,7.51
2018-01-05T09:30:39.390Z,7.48
2018-01-05T09:31:04.915Z,7.45
2018-01-05T09:31:30.398Z,7.5
2018-01-05T09:31:55.865Z,7.5
2018-01-05T09:32:21.359Z,7.54
2018-01-05T09:32:46.831Z,7.51
2018-01-05T09:33:12.375Z,7.54
2018-01-05T09:33:37.901Z,7.54
2018-01-05T09:34:03.381Z,7.51
2018-01-05T09:34:28.903Z,7.56
2018-01-05T09:34:54.414Z,7.54
2018-01-05T09:35:19.907Z,7.51
2018-01-05T09:35:45.415Z,7.47
2018-01-05T09:36:10.900Z,7.57
2018-01-05T09:36:36.448Z,7.45
2018-01-05T09:37:01.934Z,7.54
2018-01-05T09:37:50.256Z,7.51
2018-01-05T09:38:15.745Z,7.43
2018-01-05T09:38:41.225Z,7.48
2018-01-05T09:39:06.761Z,7.48
2018-01-05T09:39:32.220Z,7.56
2018-01-05T09:39:57.706Z,7.56
2018-01-05T09:40:23.178Z,7.47
2018-01-05T09:40:48.726Z,7.51
2018-01-05T09:41:14.172Z,7.51
2018-01-05T09:41:39.640Z,7.48
2018-01-05T09:42:05.116Z,7.53
2018-01-05T09:42:30.584Z,7.51
2018-01-05T09:42:56.096Z,7.53
2018-01-05T09:43:21.606Z,7.58
2018-01-05T09:43:47.105Z,7.53
2018-01-05T09:44:12.583Z,7.54
2018-01-05T09:44:38.104Z,7.54
2018-01-05T09:45:03.583Z,7.5
2018-01-05T09:45:29.068Z,7.53
2018-01-05T09:46:37.846Z,7.56
2018-01-05T09:47:03.340Z,7.5
2018-01-05T09:47:28.848Z,7.58
2018-01-05T09:47:54.347Z,7.51
2018-01-05T09:48:19.838Z,7.48
2018-01-05T09:48:45.326Z,7.57
2018-01-05T09:49:10.818Z,7.54
2018-01-05T09:49:36.385Z,7.6
2018-01-05T09:50:01.826Z,7.4
2018-01-05T09:50:27.304Z,7.6
2018-01-05T09:50:52.815Z,7.51
2018-01-05T09:51:18.278Z,7.57
2018-01-05T09:51:43.769Z,7.6
2018-01-05T09:52:09.283Z,7.54
2018-01-05T09:52:34.781Z,7.48
2018-01-05T09:53:00.302Z,7.58
2018-01-05T09:53:25.762Z,7.56
2018-01-05T09:53:51.283Z,7.54
2018-01-05T09:54:16.748Z,7.57
2018-01-05T09:54:42.201Z,7.57
2018-01-05T09:55:07.668Z,7.57
2018-01-05T09:55:33.114Z,7.57
2018-01-05T09:55:58.607Z,7.6
2018-01-05T09:56:24.087Z,7.58
2018-01-05T09:56:49.587Z,7.66
2018-01-05T09:57:15.060Z,7.53
2018-01-05T09:57:40.590Z,7.53
2018-01-05T09:58:06.074Z,7.57
2018-01-05T09:58:31.541Z,7.48
2018-01-05T09:58:57.028Z,7.54
2018-01-05T09:59:22.514Z,7.56
2018-01-05T09:59:47.992Z,7.48
2018-01-05T10:00:13.469Z,7.51
2018-01-05T10:00:38.985Z,7.56
2018-01-05T10:01:04.441Z,7.48
2018-01-05T10:01:29.932Z,7.57
2018-01-05T10:01:55.445Z,7.54
2018-01-05T10:02:20.892Z,7.6
2018-01-05T10:02:46.395Z,7.54
2018-01-05T10:03:11.874Z,7.5
2018-01-05T10:03:37.348Z,7.6
2018-01-05T10:04:46.058Z,7.48
2018-01-05T10:05:11.555Z,7.48
2018-01-05T10:05:37.056Z,7.6
2018-01-05T10:06:02.543Z,7.61
2018-01-05T10:06:28.009Z,7.53
2018-01-05T10:06:53.495Z,7.54
2018-01-05T10:07:19.036Z,7.51
2018-01-05T10:07:44.533Z,7.6
2018-01-05T10:08:09.997Z,7.6
2018-01-05T10:08:35.530Z,7.61
2018-01-05T10:09:00.989Z,7.54
2018-01-05T10:09:26.464Z,7.54
2018-01-05T10:09:51.933Z,7.58
2018-01-05T10:10:17.429Z,7.58
2018-01-05T10:10:42.944Z,7.61
2018-01-05T10:11:08.419Z,7.56
2018-01-05T10:11:33.918Z,7.69
2018-01-05T10:11:59.440Z,7.57
2018-01-05T10:12:24.956Z,7.54
2018-01-05T10:13:33.767Z,7.58
2018-01-05T10:13:59.244Z,7.61
2018-01-05T10:14:24.717Z,7.67
2018-01-05T10:14:50.184Z,7.7
2018-01-05T10:15:15.713Z,7.75
2018-01-05T10:15:41.179Z,7.6
2018-01-05T10:16:06.652Z,7.7
2018-01-05T10:16:32.155Z,7.75
2018-01-05T10:16:57.667Z,7.67
2018-01-05T10:17:23.220Z,7.8
2018-01-05T10:17:48.717Z,7.75
2018-01-05T10:18:37.032Z,7.75
2018-01-05T10:19:02.526Z,7.83
2018-01-05T10:19:28.008Z,7.77
2018-01-05T10:19:53.480Z,7.75
2018-01-05T10:20:18.974Z,7.73
2018-01-05T10:20:44.456Z,7.88
2018-01-05T10:21:09.918Z,7.83
2018-01-05T10:21:35.417Z,7.82
2018-01-05T10:22:39.041Z,7.83
2018-01-05T10:23:04.585Z,7.82
2018-01-05T10:23:30.088Z,7.79
2018-01-05T10:23:55.585Z,7.79
2018-01-05T10:24:21.043Z,7.87
2018-01-05T10:24:46.543Z,7.85
2018-01-05T10:25:12.077Z,7.93
2018-01-05T10:25:37.692Z,7.91
2018-01-05T10:26:03.151Z,7.83
2018-01-05T10:26:28.621Z,7.91
2018-01-05T10:26:54.091Z,7.87
2018-01-05T10:27:19.622Z,7.85
2018-01-05T10:27:45.114Z,7.94
2018-01-05T10:28:10.591Z,7.87
2018-01-05T10:28:36.068Z,7.9
2018-01-05T10:29:01.568Z,7.94
2018-01-05T10:30:05.213Z,7.88
2018-01-05T10:30:30.729Z,7.94
2018-01-05T10:31:24.158Z,7.93
2018-01-05T10:31:49.663Z,7.88
2018-01-05T10:32:15.162Z,7.97
2018-01-05T10:32:40.697Z,7.94
2018-01-05T10:33:06.269Z,7.95
2018-01-05T10:33:31.785Z,7.95
2018-01-05T10:33:57.294Z,7.95
2018-01-05T10:34:22.768Z,7.94
2018-01-05T10:34:48.261Z,7.94
2018-01-05T10:35:13.745Z,7.95
2018-01-05T10:35:39.237Z,7.98
2018-01-05T10:36:04.781Z,8
2018-01-05T10:36:30.279Z,7.95
2018-01-05T10:36:55.813Z,8
2018-01-05T10:37:21.324Z,7.93
2018-01-05T10:37:46.814Z,8.05
2018-01-05T10:38:12.337Z,8
2018-01-05T10:38:37.811Z,7.94
2018-01-05T10:39:03.322Z,8.06
2018-01-05T10:39:28.786Z,8
2018-01-05T10:39:54.338Z,7.98
2018-01-05T10:40:19.885Z,7.98
2018-01-05T10:40:45.376Z,7.95
2018-01-05T10:41:10.849Z,8.01
2018-01-05T10:41:36.330Z,8.06
2018-01-05T10:42:01.848Z,8.1
2018-01-05T10:42:27.320Z,8.01
2018-01-05T10:42:52.832Z,8.06
2018-01-05T10:43:18.311Z,8.06
2018-01-05T10:43:43.809Z,8.05
2018-01-05T10:44:09.276Z,8.05
2018-01-05T10:44:34.777Z,8.09
2018-01-05T10:45:33.340Z,8.13
2018-01-05T10:45:58.798Z,8.13
2018-01-05T10:46:24.320Z,8.13
2018-01-05T10:46:49.822Z,8.13
2018-01-05T10:47:15.335Z,8.09
2018-01-05T10:47:40.818Z,8.06
2018-01-05T10:48:06.313Z,8.13
2018-01-05T10:48:31.774Z,8.09
2018-01-05T10:49:20.076Z,8.16
2018-01-05T10:49:45.637Z,8.19
2018-01-05T10:50:11.105Z,8.19
2018-01-05T10:50:36.621Z,8.19
2018-01-05T10:51:40.257Z,8.28
2018-01-05T10:52:05.747Z,8.23
2018-01-05T10:52:31.213Z,8.24
2018-01-05T10:52:56.718Z,8.19
2018-01-05T10:53:22.250Z,8.3
2018-01-05T10:53:47.822Z,8.27
2018-01-05T10:54:13.254Z,8.3
2018-01-05T10:54:38.805Z,8.19
2018-01-05T10:55:04.269Z,8.27
2018-01-05T10:55:29.802Z,8.3
2018-01-05T10:55:55.273Z,8.24
2018-01-05T10:56:20.761Z,8.27
2018-01-05T10:57:29.461Z,8.23
2018-01-05T10:57:54.963Z,8.3
2018-01-05T10:58:20.474Z,8.23
2018-01-05T10:58:45.957Z,8.33
2018-01-05T10:59:11.461Z,8.33
2018-01-05T11:00:09.954Z,8.41
2018-01-05T11:00:35.506Z,8.38
2018-01-05T11:01:00.993Z,8.42
2018-01-05T11:01:26.475Z,8.36